createdAt,value
2024-01-15T04:54:01.999Z,17.50
2024-01-15T04:57:05.070Z,15.52
2024-01-15T05:00:08.265Z,17.52
2024-01-15T05:03:11.013Z,21.35
2024-01-15T05:06:13.724Z,19.48
2024-01-15T05:09:16.344Z,17.97
2024-01-15T05:12:18.941Z,19.55
2024-01-15T05:15:21.523Z,22.02
2024-01-15T05:18:24.200Z,20.98
2024-01-15T05:21:26.859Z,18.65
2024-01-15T05:24:29.390Z,20.20
2024-01-15T05:27:31.882Z,20.83
2024-01-15T05:30:34.532Z,21.52
2024-01-15T05:33:37.206Z,21.30
2024-01-15T05:36:40.186Z,21.67
2024-01-15T05:39:42.695Z,20.57
2024-01-15T05:42:45.220Z,22.55
2024-01-15T05:45:47.897Z,21.50
2024-01-15T05:48:50.556Z,23.15
2024-01-15T05:51:53.227Z,22.50
2024-01-15T05:54:55.799Z,22.40
2024-01-15T05:57:58.930Z,24.05
2024-01-15T06:01:01.662Z,22.88
2024-01-15T06:04:04.634Z,23.15
2024-01-15T06:07:07.308Z,21.33
2024-01-15T06:10:10.390Z,22.07
2024-01-15T06:13:12.938Z,21.20
2024-01-15T06:16:17.007Z,21.55
2024-01-15T06:19:19.600Z,21.45
2024-01-15T06:22:22.162Z,22.48
2024-01-15T06:25:24.652Z,25.13
2024-01-15T06:28:27.179Z,22.98
2024-01-15T06:31:30.050Z,28.27
2024-01-15T06:34:32.585Z,25.95
2024-01-15T06:37:35.170Z,23.50
2024-01-15T06:40:37.694Z,22.67
2024-01-15T06:43:40.375Z,23.10
2024-01-15T06:46:47.761Z,22.98
2024-01-15T06:49:51.880Z,25.05
2024-01-15T06:52:54.499Z,23.27
2024-01-15T06:55:57.168Z,22.50
2024-01-15T06:59:00.028Z,23.80
2024-01-15T07:02:02.672Z,25.30
2024-01-15T07:05:06.446Z,24.05
2024-01-15T07:08:09.156Z,19.23
2024-01-15T07:11:11.802Z,22.93
2024-01-15T07:14:14.436Z,21.35
2024-01-15T07:17:16.998Z,19.75
2024-01-15T07:20:20.694Z,17.80
2024-01-15T07:23:23.212Z,21.17
2024-01-15T07:26:26.519Z,20.83
2024-01-15T07:29:30.128Z,17.77
2024-01-15T07:32:32.958Z,19.77
2024-01-15T07:35:35.540Z,18.60
2024-01-15T07:38:38.508Z,20.75
2024-01-15T07:41:41.064Z,19.63
2024-01-15T07:44:43.565Z,19.05
2024-01-15T07:47:50.332Z,19.38
2024-01-15T07:50:55.759Z,19.40
2024-01-15T07:53:58.635Z,20.95
2024-01-15T08:00:34.461Z,19.85
2024-01-15T08:03:45.654Z,21.75
2024-01-15T08:07:38.230Z,21.15
2024-01-15T08:11:34.422Z,17.45
2024-01-15T08:15:09.261Z,21.33
2024-01-15T08:18:14.696Z,21.02
2024-01-15T08:21:17.482Z,22.13
2024-01-15T08:24:20.216Z,22.23
2024-01-15T08:27:22.784Z,22.00
2024-01-15T08:30:29.564Z,22.27
2024-01-15T08:33:34.871Z,21.13
2024-01-15T08:36:37.869Z,21.95
2024-01-15T08:39:40.419Z,21.95
2024-01-15T08:42:44.691Z,19.98
2024-01-15T08:46:00.861Z,19.77
2024-01-15T08:49:07.271Z,20.48
2024-01-15T08:52:22.356Z,18.88
2024-01-15T08:55:25.173Z,17.90
2024-01-15T08:59:03.723Z,19.88
2024-01-15T09:02:20.578Z,19.47
2024-01-15T09:05:32.471Z,20.50
2024-01-15T09:08:35.945Z,20.40
2024-01-15T09:11:38.605Z,19.38
2024-01-15T09:14:41.616Z,19.55
2024-01-15T09:17:45.023Z,21.27
2024-01-15T09:20:47.568Z,19.48
2024-01-15T09:23:50.203Z,21.35
2024-01-15T09:26:52.830Z,18.95
2024-01-15T09:29:56.335Z,19.55
2024-01-15T09:32:59.786Z,22.23
2024-01-15T09:36:07.647Z,21.17
2024-01-15T09:39:12.354Z,20.08
2024-01-15T09:42:21.063Z,16.95
2024-01-15T09:45:27.368Z,15.68
2024-01-15T09:48:35.197Z,14.07
2024-01-15T09:51:38.529Z,15.38
2024-01-15T09:54:43.515Z,12.18
2024-01-15T09:57:47.794Z,20.38
2024-01-15T10:00:51.637Z,17.58
2024-01-15T10:03:56.163Z,19.60
2024-01-15T10:06:59.292Z,18.55
2024-01-15T10:10:01.924Z,24.65
2024-01-15T10:13:05.523Z,16.42
2024-01-15T10:16:08.025Z,17.90
2024-01-15T10:19:14.922Z,20.87
2024-01-15T10:22:19.393Z,24.13
2024-01-15T10:25:27.034Z,21.45
2024-01-15T10:28:31.454Z,13.25
2024-01-15T10:31:34.334Z,13.93
2024-01-15T10:34:53.875Z,12.10
2024-01-15T10:37:57.558Z,16.17
2024-01-15T10:41:00.124Z,15.23
2024-01-15T10:44:05.076Z,21.10
2024-01-15T10:47:08.099Z,18.83
2024-01-15T10:50:11.582Z,17.40
2024-01-15T10:53:16.707Z,19.05
2024-01-15T10:56:20.028Z,21.30
2024-01-15T10:59:28.146Z,21.92
2024-01-15T11:02:31.281Z,13.38
2024-01-15T11:05:46.009Z,19.57
2024-01-15T11:08:54.588Z,19.42
2024-01-15T11:12:10.193Z,9.70
2024-01-15T11:15:21.756Z,15.40
2024-01-15T11:18:24.683Z,16.15
2024-01-15T11:21:28.856Z,15.07
2024-01-15T11:24:42.626Z,22.63
2024-01-15T11:27:49.146Z,13.15
2024-01-15T11:31:14.446Z,14.48
2024-01-15T11:34:23.262Z,27.80
2024-01-15T11:37:55.754Z,27.13
2024-01-15T11:41:03.395Z,20.88
2024-01-15T11:44:06.544Z,17.80
2024-01-15T11:47:16.719Z,22.58
2024-01-15T11:50:19.782Z,20.55
2024-01-15T11:53:30.052Z,17.77
2024-01-15T11:56:32.743Z,17.60
2024-01-15T11:59:35.809Z,17.90
2024-01-15T12:02:40.204Z,15.50
2024-01-15T12:05:45.726Z,15.57
2024-01-15T12:08:48.345Z,14.77
2024-01-15T12:12:01.371Z,17.10
2024-01-15T12:15:04.845Z,16.65
2024-01-15T12:18:09.319Z,12.55
2024-01-15T12:21:11.972Z,9.95
2024-01-15T12:24:14.634Z,10.57
2024-01-15T12:27:24.692Z,10.05
2024-01-15T12:30:35.380Z,10.75
2024-01-15T12:33:38.325Z,12.77
2024-01-15T12:36:41.998Z,12.18
2024-01-15T12:39:45.344Z,12.00
2024-01-15T12:42:48.143Z,14.77
2024-01-15T12:45:52.071Z,11.82
2024-01-15T12:48:54.714Z,10.75
2024-01-15T12:52:34.746Z,11.50
2024-01-15T12:55:37.956Z,6.83
2024-01-15T12:58:40.863Z,11.52
2024-01-15T13:10:06.573Z,9.43
2024-01-15T13:13:57.060Z,9.90
2024-01-15T13:17:04.143Z,9.48
2024-01-15T13:20:11.062Z,9.40
2024-01-15T13:23:14.020Z,11.32
2024-01-15T13:26:16.621Z,16.55
2024-01-15T13:29:19.405Z,28.37
2024-01-15T13:32:29.189Z,32.17
2024-01-15T13:35:32.209Z,24.10
2024-01-15T13:38:37.476Z,28.40
2024-01-15T13:41:40.094Z,36.15
2024-01-15T13:44:43.829Z,25.77
2024-01-15T13:47:46.482Z,28.50
2024-01-15T13:50:49.071Z,24.75
2024-01-15T13:53:52.069Z,23.77
2024-01-15T13:56:54.635Z,23.33
2024-01-15T13:59:57.198Z,22.90
2024-01-15T14:02:59.779Z,19.70
2024-01-15T14:06:09.808Z,19.65
2024-01-15T14:09:15.584Z,17.40
2024-01-15T14:12:18.194Z,14.32
2024-01-15T14:15:22.832Z,12.57
2024-01-15T14:18:25.539Z,12.93
2024-01-15T14:21:28.185Z,13.65
2024-01-15T14:24:30.786Z,11.77
2024-01-15T14:27:34.057Z,13.80
2024-01-15T14:30:36.807Z,11.67
2024-01-15T14:33:40.808Z,12.35
2024-01-15T14:36:44.037Z,12.10
2024-01-15T14:39:47.156Z,16.05
2024-01-15T14:42:50.157Z,15.25
2024-01-15T14:45:52.778Z,13.43
2024-01-15T14:48:55.666Z,13.52
2024-01-15T14:51:58.857Z,14.43
2024-01-15T14:55:02.285Z,12.65
2024-01-15T14:58:05.826Z,11.15
2024-01-15T15:01:08.572Z,10.40
2024-01-15T15:04:11.857Z,10.90
2024-01-15T15:07:14.571Z,10.73
2024-01-15T15:10:17.302Z,8.40
2024-01-15T15:13:29.500Z,9.90
2024-01-15T15:16:36.779Z,8.70
2024-01-15T15:19:40.958Z,9.43
2024-01-15T15:22:44.112Z,13.40
2024-01-15T15:25:46.716Z,12.20
2024-01-15T15:28:50.182Z,11.45
2024-01-15T15:31:53.121Z,14.03
2024-01-15T15:34:56.156Z,15.55
2024-01-15T15:37:58.758Z,13.95
2024-01-15T15:41:02.102Z,13.23
2024-01-15T15:44:05.167Z,12.05
2024-01-15T15:47:07.981Z,20.27
2024-01-15T15:50:10.992Z,14.90
2024-01-15T15:53:14.038Z,15.93
2024-01-15T15:56:16.793Z,19.23
2024-01-15T15:59:19.910Z,24.40
2024-01-15T16:02:22.577Z,25.30
2024-01-15T16:05:31.361Z,18.35
2024-01-15T16:08:40.413Z,13.00
2024-01-15T16:11:43.019Z,15.15
2024-01-15T16:14:45.599Z,13.23
2024-01-15T16:23:17.128Z,12.00
2024-01-15T16:23:35.527Z,12.05
2024-01-15T16:24:42.500Z,10.70
2024-01-15T16:27:53.377Z,9.38
2024-01-15T16:31:02.188Z,14.40
2024-01-15T16:34:09.759Z,4.17
2024-01-15T16:37:14.247Z,11.05
2024-01-15T16:40:16.961Z,4.82
2024-01-15T16:43:19.679Z,8.35
2024-01-15T16:46:23.022Z,4.97
2024-01-15T16:49:25.653Z,4.40
2024-01-15T16:52:28.233Z,5.35
2024-01-15T16:55:31.025Z,6.15
2024-01-15T16:58:33.836Z,5.40
2024-01-15T17:01:36.631Z,4.63
2024-01-15T17:04:39.687Z,4.67
2024-01-15T17:07:42.622Z,5.05
2024-01-15T17:10:45.549Z,5.13
2024-01-15T17:13:48.379Z,6.03
2024-01-15T17:16:51.221Z,4.53
2024-01-15T17:19:55.080Z,4.43
2024-01-15T17:22:59.228Z,6.60
2024-01-15T17:26:03.311Z,6.32
2024-01-15T17:29:06.278Z,6.13
2024-01-15T17:32:09.121Z,5.93
2024-01-15T17:35:12.053Z,7.50
2024-01-15T17:38:15.232Z,7.32
2024-01-15T17:41:18.167Z,6.15
2024-01-15T17:44:20.730Z,8.63
2024-01-15T17:47:23.588Z,6.53
2024-01-15T17:50:26.148Z,8.00
2024-01-15T17:53:29.032Z,8.00
2024-01-15T17:56:32.206Z,7.00
2024-01-15T17:59:35.385Z,9.05
2024-01-15T18:02:39.692Z,12.23
2024-01-15T18:05:42.537Z,11.27
2024-01-15T18:08:45.643Z,10.80
2024-01-15T18:11:48.377Z,10.77
2024-01-15T18:14:51.116Z,16.95
2024-01-15T18:17:54.485Z,25.15
2024-01-15T18:20:57.372Z,17.95
2024-01-15T18:24:00.189Z,15.15
2024-01-15T18:27:04.679Z,15.27
2024-01-15T18:30:07.871Z,11.63
2024-01-15T18:33:10.688Z,12.93
2024-01-15T18:36:13.556Z,12.45
2024-01-15T18:39:17.991Z,11.98
2024-01-15T18:42:20.813Z,13.00
2024-01-15T18:45:23.470Z,13.40
2024-01-15T18:48:26.171Z,18.75
2024-01-15T18:51:28.900Z,13.32
2024-01-15T18:54:31.701Z,20.35
2024-01-15T18:57:34.332Z,19.95
2024-01-15T19:00:38.091Z,16.63
2024-01-15T19:03:41.142Z,13.25
2024-01-15T19:06:45.461Z,13.38
2024-01-15T19:09:49.393Z,14.70
2024-01-15T19:12:52.013Z,15.05
2024-01-15T19:15:55.243Z,15.20
2024-01-15T19:18:57.941Z,14.07
2024-01-15T19:22:00.564Z,12.32
2024-01-15T19:25:03.376Z,15.45
2024-01-15T19:28:06.998Z,13.15
2024-01-15T19:31:10.395Z,22.00
